createdAt,value
2023-10-09T00:02:13.955Z,6.30
2023-10-09T00:04:46.660Z,7.60
2023-10-09T00:07:18.700Z,8.50
2023-10-09T00:09:48.826Z,6.70
2023-10-09T00:12:24.971Z,8.00
2023-10-09T00:15:09.149Z,5.50
2023-10-09T00:17:39.273Z,7.90
2023-10-09T00:20:19.130Z,7.20
2023-10-09T00:22:47.976Z,6.90
2023-10-09T00:25:23.409Z,6.90
2023-10-09T00:27:50.884Z,6.60
2023-10-09T00:30:20.039Z,7.00
2023-10-09T00:33:14.622Z,5.50
2023-10-09T00:35:47.833Z,5.10
2023-10-09T00:38:21.107Z,7.70
2023-10-09T00:40:57.842Z,9.10
2023-10-09T00:43:31.576Z,6.10
2023-10-09T00:46:13.882Z,6.00
2023-10-09T00:48:42.089Z,6.00
2023-10-09T00:51:20.502Z,6.70
2023-10-09T00:53:53.371Z,5.30
2023-10-09T00:56:27.230Z,5.50
2023-10-09T00:59:02.656Z,6.20
2023-10-09T01:05:20.725Z,6.60
2023-10-09T01:09:11.848Z,6.30
2023-10-09T01:13:02.437Z,6.40
2023-10-09T01:24:45.922Z,7.40
2023-10-09T01:32:22.499Z,6.00
2023-10-09T01:36:09.410Z,7.00
2023-10-09T01:47:53.485Z,7.80
2023-10-09T01:51:49.004Z,11.00
2023-10-09T01:59:57.229Z,7.30
2023-10-09T02:03:52.089Z,6.40
2023-10-09T02:07:45.895Z,8.10
2023-10-09T02:11:34.702Z,8.50
2023-10-09T02:19:31.089Z,6.80
2023-10-09T02:23:24.658Z,6.50
2023-10-09T02:27:18.738Z,8.70
2023-10-09T02:31:09.880Z,8.90
2023-10-09T02:35:05.586Z,8.50
2023-10-09T02:39:08.292Z,10.10
2023-10-09T02:43:15.014Z,9.20
2023-10-09T02:47:24.304Z,9.60
2023-10-09T02:51:21.714Z,7.70
2023-10-09T02:55:18.498Z,10.50
2023-10-09T02:59:14.259Z,12.60
2023-10-09T03:05:48.268Z,11.00
2023-10-09T03:08:15.846Z,9.80
2023-10-09T03:10:43.059Z,11.90
2023-10-09T03:13:10.895Z,14.90
2023-10-09T03:15:40.476Z,14.30
2023-10-09T03:18:07.832Z,11.80
2023-10-09T03:20:36.620Z,12.00
2023-10-09T03:23:04.122Z,15.80
2023-10-09T03:25:32.088Z,13.00
2023-10-09T03:28:00.538Z,11.60
2023-10-09T03:30:27.913Z,14.80
2023-10-09T03:32:56.045Z,13.00
2023-10-09T03:35:29.512Z,13.80
2023-10-09T03:38:02.256Z,14.10
2023-10-09T03:40:29.731Z,13.20
2023-10-09T03:42:57.450Z,11.70
2023-10-09T03:45:28.073Z,12.70
2023-10-09T03:48:07.783Z,14.00
2023-10-09T03:50:37.712Z,11.20
2023-10-09T03:53:10.327Z,15.40
2023-10-09T03:55:39.749Z,16.80
2023-10-09T03:58:08.486Z,14.50
2023-10-09T04:00:56.321Z,17.20
2023-10-09T04:03:23.877Z,13.20
2023-10-09T04:05:53.439Z,15.90
2023-10-09T04:08:31.616Z,14.10
2023-10-09T04:11:05.840Z,14.30
2023-10-09T04:13:36.603Z,16.90
2023-10-09T04:16:43.192Z,15.10
2023-10-09T04:19:13.324Z,14.70
2023-10-09T04:21:43.450Z,13.20
2023-10-09T04:24:14.412Z,14.00
2023-10-09T04:26:46.524Z,14.20
2023-10-09T04:29:28.106Z,15.80
2023-10-09T04:32:02.256Z,13.30
2023-10-09T04:34:30.117Z,14.40
2023-10-09T04:37:01.992Z,15.80
2023-10-09T04:39:33.224Z,15.70
2023-10-09T04:42:20.437Z,15.70
2023-10-09T04:45:03.982Z,13.80
2023-10-09T04:47:41.088Z,13.70
2023-10-09T04:50:16.062Z,13.50
2023-10-09T04:52:43.287Z,13.50
2023-10-09T04:55:11.136Z,12.80
2023-10-09T04:57:42.997Z,12.20
2023-10-09T05:00:26.739Z,13.70
2023-10-09T05:03:26.503Z,13.10
2023-10-09T05:06:22.708Z,10.60
2023-10-09T05:08:50.701Z,14.80
2023-10-09T05:11:36.252Z,15.00
2023-10-09T05:14:15.919Z,14.40
2023-10-09T05:16:55.883Z,13.60
2023-10-09T05:19:43.727Z,13.60
2023-10-09T05:22:31.350Z,17.10
2023-10-09T05:25:03.715Z,14.60
2023-10-09T05:27:49.355Z,16.30
2023-10-09T05:30:26.464Z,15.50
2023-10-09T05:33:00.353Z,16.40
2023-10-09T05:36:00.867Z,15.60
2023-10-09T05:38:28.287Z,23.40
2023-10-09T05:41:06.581Z,16.60
2023-10-09T05:43:52.340Z,19.40
2023-10-09T05:46:20.113Z,20.10
2023-10-09T05:48:56.160Z,19.80
2023-10-09T05:51:46.961Z,21.00
2023-10-09T05:54:34.300Z,17.60
2023-10-09T05:57:21.958Z,16.50
2023-10-09T06:00:07.980Z,19.20
2023-10-09T06:03:01.724Z,14.70
2023-10-09T06:05:43.029Z,15.90
2023-10-09T06:08:14.729Z,17.00
2023-10-09T06:10:43.273Z,14.80
2023-10-09T06:13:30.945Z,15.80
2023-10-09T06:16:17.154Z,18.30
2023-10-09T06:18:55.735Z,17.00
2023-10-09T06:21:43.642Z,14.80
2023-10-09T06:24:17.077Z,15.10
2023-10-09T06:27:00.520Z,15.50
2023-10-09T06:29:38.389Z,13.30
2023-10-09T06:32:20.525Z,17.00
2023-10-09T06:34:53.720Z,15.70
2023-10-09T06:37:27.121Z,14.20
2023-10-09T06:39:58.261Z,13.10
2023-10-09T06:42:35.587Z,15.10
2023-10-09T06:45:13.016Z,13.30
2023-10-09T06:47:43.343Z,16.30
2023-10-09T06:50:26.174Z,16.20
2023-10-09T06:53:12.919Z,15.20
2023-10-09T07:07:11.393Z,15.50
2023-10-09T07:10:59.176Z,16.80
2023-10-09T07:19:05.036Z,15.50
2023-10-09T07:22:22.513Z,16.50
2023-10-09T07:25:50.955Z,17.00
2023-10-09T07:29:29.195Z,19.40
2023-10-09T07:36:05.047Z,14.90
2023-10-09T07:39:17.480Z,17.00
2023-10-09T07:42:15.642Z,18.10
2023-10-09T07:45:33.700Z,17.50
2023-10-09T07:48:11.887Z,15.90
2023-10-09T07:50:54.877Z,15.20
2023-10-09T07:53:28.591Z,16.20
2023-10-09T07:56:46.318Z,15.30
2023-10-09T07:59:20.046Z,14.50
2023-10-09T08:01:56.531Z,18.10
2023-10-09T08:04:44.074Z,15.20
2023-10-09T08:08:02.205Z,13.60
2023-10-09T08:10:21.137Z,14.30
2023-10-09T08:12:49.156Z,16.70
2023-10-09T08:15:22.153Z,14.60
2023-10-09T08:17:56.229Z,13.30
2023-10-09T08:20:48.609Z,14.10
2023-10-09T08:23:30.962Z,14.30
2023-10-09T08:26:15.283Z,13.10
2023-10-09T08:28:47.362Z,13.20
2023-10-09T08:31:36.292Z,14.60
2023-10-09T08:36:39.850Z,10.00
2023-10-09T08:39:19.684Z,7.40
2023-10-09T08:41:48.172Z,7.10
2023-10-09T08:44:16.657Z,5.50
2023-10-09T08:46:46.724Z,5.50
2023-10-09T08:49:15.963Z,5.50
2023-10-09T08:51:44.068Z,5.70
2023-10-09T08:54:16.644Z,4.20
2023-10-09T08:56:53.013Z,4.60
2023-10-09T08:59:21.963Z,3.70
2023-10-09T09:01:53.825Z,3.80
2023-10-09T09:04:41.953Z,4.80
2023-10-09T09:07:33.340Z,4.30
2023-10-09T09:10:24.992Z,5.50
2023-10-09T09:13:40.634Z,3.30
2023-10-09T09:16:17.131Z,3.40
2023-10-09T09:19:23.140Z,2.90
2023-10-09T09:22:01.365Z,2.70
2023-10-09T09:24:32.438Z,2.70
2023-10-09T09:27:15.840Z,2.60
2023-10-09T09:29:49.596Z,3.10
2023-10-09T09:32:20.422Z,3.10
2023-10-09T09:35:19.670Z,3.70
2023-10-09T09:37:57.500Z,2.60
2023-10-09T09:40:47.516Z,2.80
2023-10-09T09:43:23.316Z,4.50
2023-10-09T09:45:59.902Z,3.70
2023-10-09T09:48:33.864Z,3.10
2023-10-09T09:51:07.567Z,3.70
2023-10-09T09:53:36.596Z,2.60
2023-10-09T09:56:06.351Z,2.40
2023-10-09T09:58:45.999Z,1.90
2023-10-09T10:01:38.699Z,3.10
2023-10-09T10:04:15.567Z,2.40
2023-10-09T10:06:49.712Z,2.40
2023-10-09T10:09:43.372Z,2.60
2023-10-09T10:12:16.059Z,2.00
2023-10-09T10:15:16.544Z,2.30
2023-10-09T10:18:00.989Z,1.50
2023-10-09T10:20:29.029Z,2.30
2023-10-09T10:23:38.437Z,1.70
2023-10-09T10:26:35.788Z,2.40
2023-10-09T10:29:27.813Z,2.10
2023-10-09T10:32:02.798Z,2.40
2023-10-09T10:34:59.474Z,1.90
2023-10-09T10:38:01.262Z,2.10
2023-10-09T10:40:52.402Z,2.30
2023-10-09T10:43:47.676Z,1.50
2023-10-09T10:46:31.871Z,1.80
2023-10-09T10:49:25.075Z,2.00
2023-10-09T10:52:50.780Z,2.40
2023-10-09T10:55:36.855Z,2.40
2023-10-09T10:58:15.202Z,1.90
2023-10-09T11:01:42.340Z,1.60
2023-10-09T11:09:52.881Z,2.10
2023-10-09T11:13:32.322Z,3.00
2023-10-09T11:17:19.796Z,2.50
2023-10-09T11:21:07.776Z,1.40
2023-10-09T11:24:55.804Z,2.80
2023-10-09T11:28:49.687Z,2.30
2023-10-09T11:32:48.587Z,2.10
2023-10-09T11:36:39.085Z,2.10
2023-10-09T11:40:36.176Z,1.60
2023-10-09T11:43:47.080Z,2.50
2023-10-09T11:46:34.479Z,1.60
2023-10-09T11:49:22.046Z,1.80
2023-10-09T11:52:13.116Z,1.90
2023-10-09T11:54:41.225Z,1.60
2023-10-09T11:57:08.546Z,1.40
2023-10-09T11:59:40.323Z,1.40
2023-10-09T12:02:14.877Z,1.50
2023-10-09T12:04:47.092Z,3.00
2023-10-09T12:07:14.897Z,1.70
2023-10-09T12:09:42.935Z,2.90
2023-10-09T12:12:13.212Z,2.10
2023-10-09T12:14:41.437Z,1.70
2023-10-09T12:17:10.157Z,1.30
2023-10-09T12:19:39.730Z,2.20
2023-10-09T12:22:12.310Z,1.40
2023-10-09T12:24:39.569Z,1.30
2023-10-09T12:27:12.929Z,4.30
2023-10-09T12:29:48.981Z,1.20
2023-10-09T12:32:21.866Z,1.90
2023-10-09T12:34:52.513Z,2.00
2023-10-09T12:37:22.372Z,1.50
2023-10-09T12:39:50.541Z,1.90
2023-10-09T12:42:18.539Z,1.70
2023-10-09T12:44:46.172Z,1.70
2023-10-09T12:47:13.611Z,2.60
2023-10-09T12:49:42.956Z,2.90
2023-10-09T12:52:20.604Z,2.30
2023-10-09T12:54:48.175Z,1.50
2023-10-09T12:57:15.737Z,1.60
2023-10-09T12:59:50.729Z,1.90
2023-10-09T13:02:30.168Z,1.30
2023-10-09T13:04:59.209Z,2.90
2023-10-09T13:07:27.072Z,1.80
2023-10-09T13:10:15.195Z,2.20
2023-10-09T13:12:43.252Z,1.80
2023-10-09T13:15:12.097Z,2.50
2023-10-09T13:17:40.365Z,1.50
2023-10-09T13:20:14.578Z,1.60
2023-10-09T13:22:43.641Z,1.70
2023-10-09T13:25:34.919Z,1.90
2023-10-09T13:28:05.874Z,1.50
2023-10-09T13:30:41.601Z,2.50
2023-10-09T13:33:09.704Z,2.60
2023-10-09T13:35:49.914Z,1.70
2023-10-09T13:38:18.966Z,2.40
2023-10-09T13:40:46.330Z,3.10
2023-10-09T13:43:18.542Z,2.20
2023-10-09T13:45:51.791Z,2.00
2023-10-09T13:48:19.604Z,2.80
2023-10-09T13:50:46.944Z,2.50
2023-10-09T13:53:16.798Z,2.30
2023-10-09T13:55:48.898Z,2.00
2023-10-09T13:58:22.452Z,2.40
2023-10-09T14:00:51.658Z,2.90
2023-10-09T14:03:21.557Z,2.70
2023-10-09T14:05:58.758Z,2.10
2023-10-09T14:08:27.806Z,2.10
2023-10-09T14:10:56.242Z,3.20
2023-10-09T14:13:30.478Z,1.60
2023-10-09T14:16:01.551Z,2.80
2023-10-09T14:18:31.824Z,1.90
2023-10-09T14:21:06.324Z,1.70
2023-10-09T14:23:36.555Z,2.10
2023-10-09T14:26:04.453Z,2.30
2023-10-09T14:28:31.797Z,2.00
2023-10-09T14:31:02.389Z,2.10
2023-10-09T14:33:38.000Z,2.20
2023-10-09T14:36:07.517Z,3.50
2023-10-09T14:38:40.128Z,1.80
2023-10-09T14:41:13.473Z,3.30
2023-10-09T14:44:41.413Z,3.90
2023-10-09T14:48:30.492Z,3.50
2023-10-09T14:52:18.757Z,3.70
2023-10-09T14:56:05.281Z,3.40
2023-10-09T14:59:53.243Z,3.40
2023-10-09T15:03:41.250Z,3.40
2023-10-09T15:07:39.849Z,3.70
2023-10-09T15:11:18.788Z,4.40
2023-10-09T15:15:06.625Z,4.10
2023-10-09T15:18:57.633Z,5.60
2023-10-09T15:25:41.131Z,7.00
2023-10-09T15:28:59.001Z,5.80
2023-10-09T15:31:51.910Z,5.40
2023-10-09T15:34:25.826Z,7.40
2023-10-09T15:36:57.921Z,6.60
2023-10-09T15:40:18.562Z,5.90
2023-10-09T15:42:53.000Z,5.40
2023-10-09T15:45:51.197Z,5.50
2023-10-09T15:48:23.253Z,6.10
2023-10-09T15:50:53.423Z,6.60
2023-10-09T15:53:21.315Z,7.70
2023-10-09T15:55:54.415Z,7.20
2023-10-09T15:58:27.521Z,8.10
2023-10-09T16:00:56.305Z,5.90
2023-10-09T16:03:26.307Z,6.10
2023-10-09T16:06:14.694Z,5.60
2023-10-09T16:08:45.162Z,6.60
2023-10-09T16:11:17.031Z,6.40
2023-10-09T16:13:44.662Z,7.50
2023-10-09T16:16:46.126Z,8.20
2023-10-09T16:19:14.139Z,6.30
2023-10-09T16:21:41.654Z,7.10
2023-10-09T16:24:11.897Z,6.10
2023-10-09T16:26:43.495Z,7.10
2023-10-09T16:29:13.025Z,6.90
2023-10-09T16:32:02.719Z,7.20
2023-10-09T16:34:30.945Z,8.30
2023-10-09T16:36:58.520Z,6.40
2023-10-09T16:39:28.282Z,6.10
2023-10-09T16:41:58.584Z,8.00
2023-10-09T16:44:27.045Z,6.20
2023-10-09T16:46:59.138Z,6.00
2023-10-09T16:49:26.904Z,6.60
2023-10-09T16:51:56.692Z,6.40
2023-10-09T16:54:25.310Z,6.70
2023-10-09T16:56:52.829Z,7.60
2023-10-09T16:59:20.582Z,8.90
2023-10-09T17:01:48.572Z,8.70
2023-10-09T17:04:19.458Z,7.10
2023-10-09T17:06:53.290Z,7.30
2023-10-09T17:09:28.933Z,7.60
2023-10-09T17:11:59.477Z,6.50
2023-10-09T17:14:28.603Z,6.80
2023-10-09T17:16:59.254Z,7.30
2023-10-09T17:19:28.228Z,8.20
2023-10-09T17:21:59.127Z,6.50
2023-10-09T17:24:27.080Z,7.70
2023-10-09T17:26:57.311Z,6.60
2023-10-09T17:29:25.145Z,7.60
2023-10-09T17:31:53.191Z,6.40
2023-10-09T17:34:25.080Z,5.90
2023-10-09T17:36:54.889Z,6.90
2023-10-09T17:39:27.930Z,4.90
2023-10-09T17:41:57.742Z,6.10
2023-10-09T17:44:25.818Z,6.40
2023-10-09T17:46:54.328Z,6.00
2023-10-09T17:49:28.043Z,6.30
2023-10-09T17:51:57.488Z,6.70
2023-10-09T17:54:25.196Z,6.50
2023-10-09T17:56:53.372Z,7.40
2023-10-09T17:59:24.649Z,7.50
2023-10-09T18:01:52.373Z,7.70
2023-10-09T18:04:20.779Z,7.80
2023-10-09T18:06:50.275Z,7.40
2023-10-09T18:09:18.733Z,7.70
2023-10-09T18:11:51.459Z,8.50
2023-10-09T18:14:20.953Z,8.70
2023-10-09T18:20:37.014Z,9.70
2023-10-09T18:23:07.103Z,14.30
2023-10-09T18:25:54.430Z,21.90
2023-10-09T18:29:16.198Z,31.70
2023-10-09T18:31:49.775Z,51.00
2023-10-09T18:34:18.131Z,35.40
2023-10-09T18:36:51.841Z,31.20
2023-10-09T18:39:24.205Z,20.70
2023-10-09T18:41:53.553Z,16.70
2023-10-09T18:44:21.169Z,11.60
2023-10-09T18:46:51.698Z,10.90
2023-10-09T18:49:19.727Z,12.90
2023-10-09T18:51:48.247Z,59.30
2023-10-09T18:54:16.816Z,20.60
2023-10-09T18:56:44.473Z,21.00
2023-10-09T18:59:16.252Z,20.80
2023-10-09T19:01:44.729Z,25.00
2023-10-09T19:04:14.517Z,55.20
2023-10-09T19:06:43.000Z,96.10
2023-10-09T19:09:10.391Z,178.00
2023-10-09T19:11:40.737Z,80.70
2023-10-09T19:14:10.742Z,45.30
2023-10-09T19:16:41.332Z,31.80
2023-10-09T19:19:09.771Z,17.60
2023-10-09T19:21:37.297Z,11.20
2023-10-09T19:24:10.916Z,12.20
2023-10-09T19:26:38.124Z,11.50
2023-10-09T19:29:05.956Z,16.80
2023-10-09T19:31:34.093Z,15.60
2023-10-09T19:34:01.539Z,12.40
2023-10-09T19:36:28.849Z,12.30
2023-10-09T19:38:56.189Z,12.20
2023-10-09T19:41:25.617Z,10.80
2023-10-09T19:43:55.373Z,12.70
2023-10-09T19:46:27.733Z,12.50
2023-10-09T19:48:56.753Z,10.90
2023-10-09T19:51:25.224Z,12.00
2023-10-09T19:53:54.323Z,27.20
2023-10-09T19:56:24.361Z,63.60
2023-10-09T19:58:59.770Z,26.90
2023-10-09T20:01:29.148Z,24.30
2023-10-09T20:03:57.319Z,22.60
2023-10-09T20:06:25.529Z,21.30
2023-10-09T20:08:55.219Z,17.30
2023-10-09T20:11:24.767Z,15.40
2023-10-09T20:13:53.181Z,19.40
2023-10-09T20:16:24.682Z,14.40
2023-10-09T20:18:56.142Z,15.90
2023-10-09T20:21:36.648Z,26.30
2023-10-09T20:24:08.510Z,14.10
2023-10-09T20:26:36.117Z,12.90
2023-10-09T20:29:05.614Z,12.00
2023-10-09T20:31:35.548Z,13.80
2023-10-09T20:34:04.614Z,44.70
2023-10-09T20:36:33.269Z,32.10
2023-10-09T20:39:00.773Z,32.10
2023-10-09T20:41:30.014Z,31.60
2023-10-09T20:43:57.554Z,29.50
2023-10-09T20:46:26.150Z,18.50
2023-10-09T20:48:56.430Z,11.70
2023-10-09T20:51:24.436Z,17.90
2023-10-09T20:53:52.892Z,14.00
2023-10-09T20:56:20.393Z,14.40
2023-10-09T20:58:49.748Z,12.50
2023-10-09T21:01:18.443Z,13.50
2023-10-09T21:03:50.882Z,12.50
2023-10-09T21:06:25.950Z,11.10
2023-10-09T21:08:53.984Z,8.80
2023-10-09T21:11:22.085Z,9.30
2023-10-09T21:13:49.649Z,8.60
2023-10-09T21:16:18.464Z,9.10
2023-10-09T21:18:47.641Z,10.20
2023-10-09T21:21:17.072Z,8.80
2023-10-09T21:23:46.038Z,9.70
2023-10-09T21:26:21.918Z,10.10
2023-10-09T21:28:50.546Z,11.20
2023-10-09T21:31:23.304Z,9.80
2023-10-09T21:33:51.892Z,11.60
2023-10-09T21:36:20.207Z,10.60
2023-10-09T21:38:49.113Z,10.00
2023-10-09T21:41:19.624Z,9.60
2023-10-09T21:43:47.552Z,9.30
2023-10-09T21:46:17.150Z,10.00
2023-10-09T21:49:06.833Z,9.10
2023-10-09T21:51:34.470Z,10.20
2023-10-09T21:54:13.099Z,11.70
2023-10-09T21:56:41.916Z,10.40
2023-10-09T21:59:15.320Z,9.50
2023-10-09T22:01:44.736Z,9.00
2023-10-09T22:04:13.424Z,10.30
2023-10-09T22:06:42.793Z,8.80
2023-10-09T22:09:17.678Z,10.50
2023-10-09T22:11:46.337Z,16.60
2023-10-09T22:14:15.581Z,25.60
2023-10-09T22:16:43.162Z,13.30
2023-10-09T22:19:15.610Z,12.10
2023-10-09T22:21:42.995Z,12.10
2023-10-09T22:24:11.243Z,10.50
2023-10-09T22:26:42.477Z,9.50
2023-10-09T22:29:14.988Z,10.70
2023-10-09T22:31:47.882Z,11.10
2023-10-09T22:34:17.027Z,10.20
2023-10-09T22:36:54.416Z,10.10
2023-10-09T22:39:22.855Z,10.40
2023-10-09T22:41:56.313Z,9.50
2023-10-09T22:44:25.982Z,8.50
2023-10-09T22:46:58.767Z,8.10
2023-10-09T22:49:33.814Z,9.40
2023-10-09T22:52:02.681Z,9.50
2023-10-09T22:54:36.868Z,11.80
2023-10-09T22:57:07.797Z,17.10
2023-10-09T22:59:46.643Z,11.40
2023-10-09T23:02:23.643Z,9.20
2023-10-09T23:05:20.015Z,9.40
2023-10-09T23:08:00.917Z,9.50
2023-10-09T23:10:33.243Z,9.10
2023-10-09T23:13:16.136Z,10.60
2023-10-09T23:16:04.837Z,10.50
2023-10-09T23:18:37.085Z,9.00
2023-10-09T23:21:24.335Z,9.20
2023-10-09T23:23:52.180Z,9.30
2023-10-09T23:26:35.250Z,10.40
2023-10-09T23:29:10.921Z,8.90
2023-10-09T23:31:49.269Z,10.00
2023-10-09T23:34:21.896Z,8.80
2023-10-09T23:36:50.191Z,9.40
2023-10-09T23:39:37.389Z,9.10
2023-10-09T23:42:16.773Z,9.00
2023-10-09T23:44:44.778Z,7.50
2023-10-09T23:47:18.643Z,8.20
2023-10-09T23:49:47.558Z,8.60
2023-10-09T23:52:15.357Z,9.20
2023-10-09T23:58:00.161Z,30.90
